• Join FlightAware (Why Join?)
  • Login
  • US Flag 
08:29AM EDT


 

Airport Tracker/Info


-or-


 

Live Flight TrackerFlight Track Log ✈ SWA419 ✈ 23-Apr-2013 ✈ KSAT - KDEN

Flight Track Log - Related Links

Times and Time Zones

All times are in EDT time to prevent confusion due to time zone crossing. See the SWA419 flight status page for this flight to view local times or setup timezone preferences in your user account.

Time Position Orientation Groundspeed Altitude Reporting Facility
EDT Latitude Longitude Course Direction KTS MPH feet Rate Location/Type
06:32PM 29.5811 -98.4056 49° Northeast 183 211 3,300  Level Houston Center
06:33PM 29.6219 -98.3567 46° Northeast 242 278 5,500 2,760 Climbing Houston Center
06:34PM 29.7069 -98.3625 357° North 287 330 9,100 2,580 Climbing Houston Center
06:35PM 29.7972 -98.3703 356° North 335 386 10,900 2,160 Climbing Houston Center
06:36PM 29.9047 -98.3778 357° North 383 441 13,700 3,000 Climbing Houston Center
06:37PM 30.0186 -98.3978 351° North 385 443 17,100 3,060 Climbing Houston Center
06:38PM 30.1153 -98.4544 333° Northwest 409 471 20,100 2,760 Climbing Houston Center
06:39PM 30.2225 -98.5144 334° Northwest 396 456 22,900 2,280 Climbing Houston Center
06:40PM 30.3133 -98.5678 333° Northwest 408 470 24,900 1,980 Climbing Houston Center
06:41PM 30.4181 -98.6308 333° Northwest 418 481 27,000 2,160 Climbing Houston Center
06:42PM 30.5442 -98.7033 334° Northwest 425 489 29,400 2,040 Climbing Houston Center
06:43PM 30.6536 -98.7681 333° Northwest 433 498 31,300 1,860 Climbing Houston Center
06:44PM 30.7608 -98.8303 333° Northwest 427 491 33,300 1,500 Climbing Houston Center
06:45PM 30.8669 -98.8931 333° Northwest 424 488 34,500 1,320 Climbing Houston Center
06:46PM 30.9750 -98.9572 333° Northwest 427 491 36,100 1,500 Climbing Houston Center
06:47PM 31.0811 -99.0200 333° Northwest 424 488 37,700 900 Climbing Houston Center
06:48PM 31.1850 -99.0817 333° Northwest 415 478 38,000 120 Climbing Houston Center
06:49PM 31.3086 -99.1547 333° Northwest 421 484 38,000  Level Houston Center
06:50PM 31.4117 -99.2181 332° Northwest 416 479 38,000  Level Houston Center
06:51PM 31.5164 -99.2797 333° Northwest 416 479 38,000  Level Houston Center
06:53PM 31.6211 -99.3417 333° Northwest 416 479 38,000  Level Houston Center
06:54PM 31.7247 -99.4039 333° Northwest 414 476 38,000  Level Houston Center
06:55PM 31.8311 -99.4672 333° Northwest 409 471 38,000  Level Fort Worth Center
06:56PM 31.9344 -99.5308 332° Northwest 409 471 38,000  Level Fort Worth Center
06:57PM 32.0358 -99.5919 333° Northwest 409 471 38,000  Level Fort Worth Center
06:58PM 32.1389 -99.6533 333° Northwest 404 465 38,000  Level Fort Worth Center
06:59PM 32.2381 -99.7172 331° Northwest 404 465 38,000  Level Fort Worth Center
07:00PM 32.3414 -99.7789 333° Northwest 404 465 38,000  Level Fort Worth Center
07:01PM 32.4467 -99.8431 333° Northwest 404 465 38,000  Level Fort Worth Center
07:02PM 32.5497 -99.9025 334° Northwest 404 465 38,000  Level Fort Worth Center
07:03PM 32.6614 -99.9575 337° Northwest 416 479 38,000  Level Fort Worth Center
07:04PM 32.7831 -100.0253 335° Northwest 435 501 38,000  Level Fort Worth Center
07:05PM 32.8886 -100.0753 338° Northwest 430 495 38,000  Level Fort Worth Center
07:06PM 32.9981 -100.1306 337° Northwest 425 489 38,000  Level Fort Worth Center
07:07PM 33.1053 -100.1883 336° Northwest 425 489 38,000  Level Fort Worth Center
07:08PM 33.2083 -100.2414 337° Northwest 413 475 38,000  Level Fort Worth Center
07:09PM 33.3178 -100.2994 336° Northwest 413 475 38,000 -60 Level Fort Worth Center
07:10PM 33.4208 -100.3503 338° Northwest 413 475 37,900  Descending Fort Worth Center
07:11PM 33.5281 -100.4086 336° Northwest 413 475 38,000  Climbing Fort Worth Center
07:12PM 33.6311 -100.4644 336° Northwest 413 475 38,000  Level Fort Worth Center
07:13PM 33.7383 -100.5181 337° Northwest 413 475 38,000  Level Fort Worth Center
07:14PM 33.8453 -100.5744 336° Northwest 413 475 38,000  Level Fort Worth Center
07:15PM 33.9525 -100.6311 336° Northwest 413 475 38,000  Level Fort Worth Center
07:16PM 34.0347 -100.6792 334° Northwest 413 475 38,000  Level Fort Worth Center
07:18PM 34.3194 -100.8286 337° Northwest 417 480 38,000  Level Albuquerque Center
07:19PM 34.4272 -100.8864 336° Northwest 421 484 38,000  Level Albuquerque Center
07:20PM 34.5336 -100.9444 336° Northwest 421 484 38,000  Level Albuquerque Center
07:21PM 34.6411 -101.0025 336° Northwest 422 486 38,000  Level Albuquerque Center
07:22PM 34.7469 -101.0600 336° Northwest 420 483 38,000  Level Albuquerque Center
07:23PM 34.8539 -101.1189 336° Northwest 421 484 38,000  Level Albuquerque Center
07:24PM 34.9594 -101.1767 336° Northwest 419 482 38,000  Level Albuquerque Center
07:25PM 35.0856 -101.2450 336° Northwest 416 479 38,000  Level Albuquerque Center
07:26PM 35.1892 -101.3025 336° Northwest 414 476 38,000  Level Albuquerque Center
07:27PM 35.2828 -101.3544 336° Northwest 414 476 38,000  Level Albuquerque Center
07:28PM 35.4086 -101.4239 336° Northwest 412 474 38,000  Level Albuquerque Center
07:29PM 35.5097 -101.4864 333° Northwest 409 471 38,000  Level Albuquerque Center
07:30PM 35.6131 -101.5517 333° Northwest 404 465 38,000  Level Albuquerque Center
07:31PM 35.7136 -101.6144 333° Northwest 407 468 38,000  Level Albuquerque Center
07:32PM 35.8139 -101.6783 333° Northwest 407 468 38,000  Level Albuquerque Center
07:33PM 35.9136 -101.7436 332° Northwest 407 468 38,000  Level Albuquerque Center
07:35PM 36.0144 -101.8094 332° Northwest 408 470 38,000  Level Albuquerque Center
07:36PM 36.1147 -101.8681 335° Northwest 404 465 38,000  Level Albuquerque Center
07:37PM 36.2128 -101.9303 333° Northwest 398 458 38,000  Level Albuquerque Center
07:38PM 36.3336 -102.0081 333° Northwest 407 468 38,000  Level Albuquerque Center
07:39PM 36.4344 -102.0725 333° Northwest 409 471 38,000 -120 Level Albuquerque Center
07:40PM 36.5353 -102.1381 332° Northwest 408 470 37,800 -600 Descending Albuquerque Center
07:41PM 36.6433 -102.2058 333° Northwest 412 474 36,800 -900 Descending Albuquerque Center
07:42PM 36.7422 -102.2717 332° Northwest 421 484 36,000 -420 Descending Albuquerque Center
07:43PM 36.8489 -102.3403 333° Northwest 430 495 36,000  Level Albuquerque Center
07:44PM 36.9686 -102.4172 333° Northwest 438 504 36,000  Level Albuquerque Center
07:45PM 37.0706 -102.4839 332° Northwest 433 498 36,000  Level Albuquerque Center
07:46PM 37.1783 -102.5558 332° Northwest 426 490 36,000 -300 Level Albuquerque Center
07:47PM 37.2978 -102.6336 333° Northwest 430 495 35,400 -840 Descending Albuquerque Center
07:48PM 37.4000 -102.7011 332° Northwest 432 497 34,400 -720 Descending Albuquerque Center
07:49PM 37.4997 -102.7661 333° Northwest 427 491 34,000 -300 Descending Albuquerque Center
07:49PM 37.5708 -102.7972 341° North 426 490 34,000  Level Denver Center
07:50PM 37.6736 -102.8567 335° Northwest 425 489 34,000  Level Denver Center
07:51PM 37.7831 -102.9425 328° Northwest 416 479 34,000  Level Denver Center
07:52PM 37.8772 -103.0164 328° Northwest 417 480 34,000  Level Denver Center
07:54PM 37.9864 -103.1025 328° Northwest 416 479 34,000  Level Denver Center
07:55PM 38.0808 -103.1772 328° Northwest 419 482 34,000  Level Denver Center
07:56PM 38.1933 -103.2653 328° Northwest 426 490 34,000  Level Denver Center
07:57PM 38.2903 -103.3422 328° Northwest 429 494 34,000  Level Denver Center
07:58PM 38.3992 -103.4283 328° Northwest 429 494 34,000  Level Denver Center
07:59PM 38.5000 -103.5092 328° Northwest 428 493 34,000 -600 Level Denver Center
08:00PM 38.5967 -103.5867 328° Northwest 429 494 32,800 -1,980 Descending Denver Center
08:01PM 38.7081 -103.6744 328° Northwest 423 487 30,000 -2,460 Descending Denver Center
08:02PM 38.7978 -103.7486 327° Northwest 401 461 27,800 -2,220 Descending Denver Center
08:03PM 38.8969 -103.8286 328° Northwest 399 459 25,500 -2,280 Descending Denver Center
08:04PM 38.9903 -103.9050 328° Northwest 395 455 23,200 -2,160 Descending Denver Center
08:05PM 39.0783 -103.9764 328° Northwest 376 433 21,100 -2,160 Descending Denver Center
08:06PM 39.1742 -104.0553 327° Northwest 350 403 18,800 -1,980 Descending Denver Center
08:07PM 39.2517 -104.1206 327° Northwest 331 381 17,100 -2,340 Descending Denver Center
08:08PM 39.3269 -104.1844 327° Northwest 326 375 14,000 -2,340 Descending Denver Center
08:09PM 39.3778 -104.2861 303° West 318 366 12,300 -1,440 Descending Denver Center
08:10PM 39.4142 -104.3753 298° West 285 328 11,000 -960 Descending Denver Center
08:11PM 39.4603 -104.4628 304° West 274 315 10,300 -780 Descending Denver Center
08:12PM 39.5261 -104.5033 335° Northwest 260 299 9,500 -780 Descending Denver Center
08:13PM 39.5822 -104.5381 335° Northwest 221 254 8,800 -780 Descending Denver Center
08:14PM 39.6414 -104.5739 335° Northwest 214 246 8,000 -780 Descending Denver Center
08:15PM 39.6953 -104.6083 334° Northwest 208 239 7,300 -540 Descending Denver Center
08:16PM 39.7483 -104.6389 336° Northwest 184 212 6,900 -540 Descending Denver Center
08:17PM 39.7925 -104.6428 356° North 158 182 6,200 -780 Descending Denver Center
08:18PM 39.8386 -104.6419 North 155 178 5,300 -900 Descending Denver Center
08:20PM 39.8500 -104.6667 North  Level FlightAware Approximate
08:27PM 39.8617 -104.6732 North  Level Estimated
08:28PM 39.8617 -104.6732 North  Level Estimated
08:29PM 39.8617 -104.6732 North  Level Estimated